< < Back
Terminal Aerodrome Forecast


Current Version              Previous Versions:   1  2  3  4  5  6  7  8  9  

Terminal Aerodrome Forecast

322
FTUS44 KMRX 302330
TAFTYS
TAF
KTYS 302330Z 0100/0124 VRB03KT P6SM SCT250
      TEMPO 0109/0113 4SM BR
     FM011500 27005KT P6SM SCT050=



Latest METAR

060
SAUS80 KWBC 011500 CCA
MTRTYS
METAR KTYS 011453Z 00000KT 7SM FEW120 BKN250 22/16 A3004 RMK AO2 SLP163
T02170156 51012 $


USA.gov is the U.S. government's official web portal to all federal, state and local government web resources and services.